Pagrindinis puslapis
METAR-TAF:

METAR-TAF

Oro uostai :

Oslas, Norvegija

platuma: 60-12N, ilguma: 011-05E, Aukštis: 208 m

Dabartinis oras

Ataskaita buvo paskelbta 19 minutes, ne 22:20 UTC
Vėjas 2 kt nuo kintamojo kryptimis
Temperatūra 12°C
Drėgmė 54%
Slėgis 1016 hPa
Matomumas 10 km arba daugiau
nėra debesų žemiau 1500 m ir nėra kamuolinių lietaus debesų

METAR: ENGM 202220Z VRB02KT CAVOK 12/03 Q1016

Laikas: 00:39 (22:39 UTC)

Prognozė

Prognozė galioja nuo 20 metu 18 UTC su 21 metu 18 UTC
Vėjas 5 kt iš Vakarų
Matomumas 10 km arba daugiau
nėra debesų žemiau 1500 m ir nėra kamuolinių lietaus debesų

TAF: ENGM 2018/2118 27005KT CAVOK

Orai ataskaitas ir orų prognozės (METAR, TAF).

turimą stotys yra geltonos ir raudonos taškus žemėlapyje.

Perkelti pele per norėdami pamatyti stoties vardą.

Tada spustelėkite, norėdami matyti oro stebėjimo ir prognozės.

Norėdami pakeisti žemėlapį: spustelėkite ant žalios mygtukų su juodo kryžiaus žemyn,; žalią mygtuką su brūkšneliu, jei norite nutolinti; arba žalių rodyklių gretimoms žemėlapius.


METAR-TAF: